Time;durP1;ratioP1;P1;durP2;ratioP2;P2;SDS_P1;SDS_P2;PMS_P1;PMS_P2;Temp;Humidity;BMP_temperature;BMP_pressure;BME280_temperature;BME280_humidity;BME280_pressure;Samples;Min_cycle;Max_cycle;Signal;HPM_P1;HPM_P2
2023/07/03 00:01:07;;;;;;;;;;;15.70;99.90;;;;;;21176928;28;20315;-74
2023/07/03 00:11:08;;;;;;;;;;;15.90;99.90;;;;;;21167700;28;19975;-74
2023/07/03 00:21:08;;;;;;;;;;;16.20;99.90;;;;;;21167553;28;19916;-75
2023/07/03 00:31:09;;;;;;;;;;;16.60;99.90;;;;;;21166876;28;19916;-75
2023/07/03 00:41:09;;;;;;;;;;;16.70;99.90;;;;;;21147879;28;19925;-75
2023/07/03 00:51:12;;;;;;;;;;;16.60;99.90;;;;;;21170505;28;19937;-74
2023/07/03 01:01:43;;;;;;;;;;;16.50;99.90;;;;;;21101170;28;19912;-75
2023/07/03 01:11:45;;;;;;;;;;;16.40;99.90;;;;;;21049172;28;20304;-74
2023/07/03 01:21:49;;;;;;;;;;;16.30;99.90;;;;;;21059496;28;20262;-74
2023/07/03 01:31:50;;;;;;;;;;;16.10;99.90;;;;;;21149636;28;20411;-75
2023/07/03 01:41:52;;;;;;;;;;;15.90;99.90;;;;;;21161618;28;19919;-75
2023/07/03 01:52:01;;;;;;;;;;;15.60;99.90;;;;;;21167180;28;19977;-74
2023/07/03 02:02:07;;;;;;;;;;;15.40;99.90;;;;;;21157163;28;19919;-74
2023/07/03 02:12:09;;;;;;;;;;;15.30;99.90;;;;;;21157473;28;19958;-75
2023/07/03 02:22:11;;;;;;;;;;;15.20;99.90;;;;;;21162788;28;19965;-74
2023/07/03 02:32:15;;;;;;;;;;;14.80;99.90;;;;;;21160759;28;19923;-75
2023/07/03 02:42:16;;;;;;;;;;;14.80;99.90;;;;;;21224482;28;20373;-74
2023/07/03 02:52:16;;;;;;;;;;;14.90;99.90;;;;;;21242444;27;19947;-75
2023/07/03 03:02:18;;;;;;;;;;;15.00;99.90;;;;;;21148108;28;19912;-75
2023/07/03 03:12:19;;;;;;;;;;;14.90;99.90;;;;;;21121670;28;19923;-74
2023/07/03 03:22:19;;;;;;;;;;;14.80;99.90;;;;;;21138547;28;19916;-74
2023/07/03 03:32:20;;;;;;;;;;;14.70;99.90;;;;;;21156046;28;19923;-74
2023/07/03 03:42:21;;;;;;;;;;;14.70;99.90;;;;;;21163251;28;19916;-74
2023/07/03 03:52:23;;;;;;;;;;;14.70;99.90;;;;;;21168133;28;19974;-74
2023/07/03 04:02:24;;;;;;;;;;;14.80;99.90;;;;;;21212126;27;19912;-74
2023/07/03 04:12:25;;;;;;;;;;;14.90;99.90;;;;;;21254770;27;19922;-74
2023/07/03 04:22:26;;;;;;;;;;;15.00;99.90;;;;;;21231764;27;20491;-74
2023/07/03 04:32:27;;;;;;;;;;;14.90;99.90;;;;;;21174995;27;19973;-74
2023/07/03 04:42:31;;;;;;;;;;;15.00;99.90;;;;;;21166620;28;19912;-74
2023/07/03 04:52:33;;;;;;;;;;;15.10;99.90;;;;;;21166968;28;20393;-75
2023/07/03 05:02:34;;;;;;;;;;;15.10;99.90;;;;;;21165376;28;19939;-75
2023/07/03 05:12:34;;;;;;;;;;;15.40;99.90;;;;;;21164554;28;19955;-75
2023/07/03 05:22:36;;;;;;;;;;;15.70;99.90;;;;;;21096895;22;19977;-76
2023/07/03 05:32:37;;;;;;;;;;;16.20;99.90;;;;;;21112844;28;19920;-75
2023/07/03 05:42:38;;;;;;;;;;;16.70;99.90;;;;;;21162244;28;19915;-76
2023/07/03 05:52:40;;;;;;;;;;;16.90;99.90;;;;;;21155833;28;19969;-75
2023/07/03 06:02:41;;;;;;;;;;;17.10;99.90;;;;;;21135763;28;19916;-76
2023/07/03 06:12:42;;;;;;;;;;;17.20;99.90;;;;;;21115899;28;19913;-76
2023/07/03 06:22:43;;;;;;;;;;;17.50;99.90;;;;;;21090570;28;20281;-76
2023/07/03 06:32:43;;;;;;;;;;;17.90;99.90;;;;;;21120967;28;19919;-76
2023/07/03 06:42:44;;;;;;;;;;;18.20;99.90;;;;;;21157485;28;19919;-77
2023/07/03 06:52:49;;;;;;;;;;;18.50;99.90;;;;;;21138035;28;19911;-75
2023/07/03 07:02:49;;;;;;;;;;;18.90;99.90;;;;;;21079624;28;19963;-76
2023/07/03 07:12:50;;;;;;;;;;;18.80;99.90;;;;;;21073052;28;19916;-76
2023/07/03 07:22:51;;;;;;;;;;;19.00;99.90;;;;;;21087978;28;20382;-76
2023/07/03 07:32:51;;;;;;;;;;;19.20;99.90;;;;;;21087253;28;19912;-75
2023/07/03 07:42:52;;;;;;;;;;;19.10;99.90;;;;;;21086421;28;19912;-75
2023/07/03 07:52:52;;;;;;;;;;;19.30;99.90;;;;;;21067517;28;20370;-75
2023/07/03 08:02:53;;;;;;;;;;;19.20;99.90;;;;;;21084796;28;19912;-75
2023/07/03 08:12:54;;;;;;;;;;;19.70;99.90;;;;;;21065681;28;20401;-75
2023/07/03 08:22:55;;;;;;;;;;;20.10;99.90;;;;;;21094164;28;19923;-76
2023/07/03 08:32:55;;;;;;;;;;;21.10;99.90;;;;;;21065869;28;20397;-75
2023/07/03 08:42:58;;;;;;;;;;;21.20;99.90;;;;;;21081794;28;20394;-75
2023/07/03 08:53:03;;;;;;;;;;;21.40;99.90;;;;;;21081193;28;19943;-76
2023/07/03 09:03:16;;;;;;;;;;;21.40;99.90;;;;;;21080271;28;19942;-75
2023/07/03 09:13:20;;;;;;;;;;;22.00;99.90;;;;;;21079521;28;20370;-75
2023/07/03 09:23:27;;;;;;;;;;;21.90;99.90;;;;;;21078636;28;20321;-74
2023/07/03 09:33:28;;;;;;;;;;;22.00;99.90;;;;;;21077975;28;19943;-74
2023/07/03 09:43:32;;;;;;;;;;;22.80;99.90;;;;;;21076257;28;19969;-75
2023/07/03 09:53:36;;;;;;;;;;;22.80;99.90;;;;;;21076162;28;20003;-75
2023/07/03 10:03:37;;;;;;;;;;;22.60;99.90;;;;;;21057777;28;19916;-75
2023/07/03 10:13:42;;;;;;;;;;;23.30;99.90;;;;;;21058433;28;19912;-75
2023/07/03 10:23:44;;;;;;;;;;;24.10;99.90;;;;;;21129875;28;19920;-75
2023/07/03 10:33:46;;;;;;;;;;;23.00;99.90;;;;;;21149287;28;19926;-75
2023/07/03 10:43:52;;;;;;;;;;;23.40;99.90;;;;;;21127394;28;19920;-75
2023/07/03 10:54:11;;;;;;;;;;;23.10;99.90;;;;;;21143287;28;19912;-74
2023/07/03 11:04:19;;;;;;;;;;;23.60;99.90;;;;;;21072225;28;19920;-74
2023/07/03 11:14:23;;;;;;;;;;;24.60;99.90;;;;;;21089258;28;19919;-74
2023/07/03 11:34:28;;;;;;;;;;;24.60;99.90;;;;;;21049773;22;19924;-74
2023/07/03 11:44:37;;;;;;;;;;;24.20;99.90;;;;;;21002120;28;19927;-75
2023/07/03 11:54:39;;;;;;;;;;;24.30;99.90;;;;;;20980828;28;20531;-75
2023/07/03 12:04:42;;;;;;;;;;;24.10;99.90;;;;;;20835014;28;20292;-74
2023/07/03 12:14:47;;;;;;;;;;;23.90;99.90;;;;;;20961245;28;19943;-75
2023/07/03 12:24:48;;;;;;;;;;;23.90;99.90;;;;;;20982842;28;19917;-75
2023/07/03 12:34:49;;;;;;;;;;;24.10;99.90;;;;;;20915994;28;19916;-75
2023/07/03 12:44:50;;;;;;;;;;;24.50;99.90;;;;;;20915312;28;19921;-74
2023/07/03 12:54:51;;;;;;;;;;;24.10;99.90;;;;;;20902438;28;19958;-74
2023/07/03 13:04:56;;;;;;;;;;;24.20;99.90;;;;;;20813640;28;19960;-75
2023/07/03 13:15:02;;;;;;;;;;;24.50;99.90;;;;;;20830335;28;20351;-75
2023/07/03 13:25:02;;;;;;;;;;;24.60;99.90;;;;;;20843865;28;20374;-74
2023/07/03 13:35:04;;;;;;;;;;;24.80;99.90;;;;;;20911474;28;20054;-74
2023/07/03 13:45:07;;;;;;;;;;;23.50;99.90;;;;;;20910346;28;20292;-75
2023/07/03 13:55:09;;;;;;;;;;;23.60;99.90;;;;;;20907653;28;19912;-75
2023/07/03 14:05:10;;;;;;;;;;;24.30;99.90;;;;;;20988989;28;19920;-74
2023/07/03 14:15:18;;;;;;;;;;;24.40;99.90;;;;;;20960679;28;20002;-75
2023/07/03 14:25:19;;;;;;;;;;;25.00;99.90;;;;;;20944526;28;19917;-75
2023/07/03 14:35:19;;;;;;;;;;;24.90;99.80;;;;;;20959574;28;20417;-75
2023/07/03 14:45:20;;;;;;;;;;;24.80;99.40;;;;;;20988167;28;19927;-75
2023/07/03 14:55:21;;;;;;;;;;;23.10;99.90;;;;;;20973151;28;19913;-74
2023/07/03 15:05:21;;;;;;;;;;;23.40;99.90;;;;;;20906625;28;19916;-74
2023/07/03 15:15:22;;;;;;;;;;;23.60;99.90;;;;;;20906086;28;19913;-75
2023/07/03 15:25:23;;;;;;;;;;;23.70;99.90;;;;;;20871019;28;20007;-75
2023/07/03 15:35:23;;;;;;;;;;;23.70;99.90;;;;;;20843556;28;19944;-74
2023/07/03 15:45:24;;;;;;;;;;;24.00;99.90;;;;;;20919444;28;19972;-74
2023/07/03 15:55:24;;;;;;;;;;;24.20;99.90;;;;;;20901656;28;20443;-74
2023/07/03 16:05:25;;;;;;;;;;;24.10;99.90;;;;;;20835609;28;19917;-74
2023/07/03 16:15:30;;;;;;;;;;;24.00;99.90;;;;;;20817340;28;20464;-74
2023/07/03 16:25:31;;;;;;;;;;;24.10;99.90;;;;;;20851302;28;20001;-76
2023/07/03 16:35:31;;;;;;;;;;;23.70;99.90;;;;;;20916030;28;19919;-74
2023/07/03 16:45:32;;;;;;;;;;;23.70;99.90;;;;;;20914574;28;19985;-74
2023/07/03 16:55:33;;;;;;;;;;;23.80;99.90;;;;;;20935248;28;19920;-73
2023/07/03 17:05:34;;;;;;;;;;;23.60;99.90;;;;;;20970165;28;19921;-73
2023/07/03 17:15:34;;;;;;;;;;;23.80;99.90;;;;;;20992815;28;20011;-73
2023/07/03 17:25:36;;;;;;;;;;;23.70;99.90;;;;;;20967291;22;19929;-74
2023/07/03 17:35:39;;;;;;;;;;;23.60;99.90;;;;;;20969169;28;20003;-74
2023/07/03 17:45:39;;;;;;;;;;;23.10;99.90;;;;;;20993628;28;20425;-74
2023/07/03 17:55:43;;;;;;;;;;;23.10;99.90;;;;;;20954375;28;19917;-75
2023/07/03 18:05:44;;;;;;;;;;;23.60;99.90;;;;;;20826102;28;19917;-74
2023/07/03 18:15:45;;;;;;;;;;;24.40;99.90;;;;;;20826332;28;20000;-74
2023/07/03 18:25:47;;;;;;;;;;;23.90;99.90;;;;;;20845013;28;19996;-74
2023/07/03 18:35:48;;;;;;;;;;;22.70;99.90;;;;;;20907938;28;19916;-74
2023/07/03 18:45:48;;;;;;;;;;;22.10;99.90;;;;;;20907363;28;20330;-74
2023/07/03 18:55:49;;;;;;;;;;;21.60;99.90;;;;;;20886868;28;20287;-75
2023/07/03 19:05:51;;;;;;;;;;;20.90;99.90;;;;;;20823858;28;19921;-74
2023/07/03 19:15:54;;;;;;;;;;;20.30;99.90;;;;;;20817988;28;19913;-74
2023/07/03 19:25:56;;;;;;;;;;;19.90;99.90;;;;;;20839010;28;19944;-74
2023/07/03 19:35:56;;;;;;;;;;;19.70;99.90;;;;;;20838195;28;19936;-74
2023/07/03 19:45:57;;;;;;;;;;;19.50;99.90;;;;;;20855741;28;19925;-74
2023/07/03 19:55:58;;;;;;;;;;;18.80;99.90;;;;;;20906577;28;20386;-74
2023/07/03 20:05:58;;;;;;;;;;;18.80;99.90;;;;;;20906487;28;19917;-73
2023/07/03 20:16:03;;;;;;;;;;;18.70;99.90;;;;;;20980054;28;20004;-73
2023/07/03 20:26:03;;;;;;;;;;;18.70;99.90;;;;;;20870266;28;19940;-73
2023/07/03 20:36:05;;;;;;;;;;;18.50;99.90;;;;;;20862031;28;19996;-73
2023/07/03 20:46:09;;;;;;;;;;;18.10;99.90;;;;;;20861821;28;19967;-73
2023/07/03 20:56:10;;;;;;;;;;;17.80;99.90;;;;;;20870913;28;19913;-73
2023/07/03 21:06:11;;;;;;;;;;;17.90;99.90;;;;;;20869954;28;19917;-73
2023/07/03 21:16:13;;;;;;;;;;;17.80;99.90;;;;;;20871855;28;19913;-73
2023/07/03 21:26:18;;;;;;;;;;;18.00;99.90;;;;;;20884791;28;19971;-73
2023/07/03 21:36:20;;;;;;;;;;;18.20;99.90;;;;;;20911231;28;19917;-73
2023/07/03 21:46:22;;;;;;;;;;;18.20;99.90;;;;;;20910602;28;19917;-73
2023/07/03 21:56:24;;;;;;;;;;;18.20;99.90;;;;;;20910160;28;20525;-73
2023/07/03 22:06:25;;;;;;;;;;;18.30;99.90;;;;;;20909089;28;19917;-73
2023/07/03 22:16:26;;;;;;;;;;;18.60;99.90;;;;;;20908365;28;20335;-73
2023/07/03 22:26:26;;;;;;;;;;;18.70;99.90;;;;;;20907732;28;19924;-73
2023/07/03 22:36:27;;;;;;;;;;;18.70;99.90;;;;;;20907643;28;20444;-73
2023/07/03 22:46:28;;;;;;;;;;;18.70;99.90;;;;;;20912106;28;19959;-73
2023/07/03 22:56:28;;;;;;;;;;;18.70;99.90;;;;;;20924698;28;20031;-73
2023/07/03 23:06:30;;;;;;;;;;;18.70;99.90;;;;;;20922605;28;20302;-73
2023/07/03 23:16:31;;;;;;;;;;;18.60;99.90;;;;;;20920579;28;20452;-73
2023/07/03 23:26:31;;;;;;;;;;;18.60;99.90;;;;;;20920887;28;19916;-73
2023/07/03 23:36:33;;;;;;;;;;;18.60;99.90;;;;;;20921158;28;20405;-72
2023/07/03 23:46:35;;;;;;;;;;;18.60;99.90;;;;;;20921103;28;20003;-72
2023/07/03 23:56:36;;;;;;;;;;;18.60;99.90;;;;;;20896562;28;19960;-72
